sensor_id;sensor_type;location;lat;lon;timestamp;P1;durP1;ratioP1;P2;durP2;ratioP2
37805;SDS011;25082;50.870;0.022;2023-04-12T00:00:33;6.05;;;1.83;;
37805;SDS011;25082;50.870;0.022;2023-04-12T00:02:59;5.53;;;1.73;;
37805;SDS011;25082;50.870;0.022;2023-04-12T00:05:27;4.15;;;1.60;;
37805;SDS011;25082;50.870;0.022;2023-04-12T00:07:54;6.13;;;1.63;;
37805;SDS011;25082;50.870;0.022;2023-04-12T00:10:20;5.43;;;1.75;;
37805;SDS011;25082;50.870;0.022;2023-04-12T00:12:46;5.07;;;1.45;;
37805;SDS011;25082;50.870;0.022;2023-04-12T00:15:13;7.68;;;1.55;;
37805;SDS011;25082;50.870;0.022;2023-04-12T00:17:39;6.22;;;1.77;;
37805;SDS011;25082;50.870;0.022;2023-04-12T00:20:06;4.85;;;1.45;;
37805;SDS011;25082;50.870;0.022;2023-04-12T00:22:40;9.15;;;1.95;;
37805;SDS011;25082;50.870;0.022;2023-04-12T00:25:06;5.00;;;1.50;;
37805;SDS011;25082;50.870;0.022;2023-04-12T00:27:33;9.13;;;2.22;;
37805;SDS011;25082;50.870;0.022;2023-04-12T00:29:59;6.63;;;1.70;;
37805;SDS011;25082;50.870;0.022;2023-04-12T00:32:25;5.68;;;1.70;;
37805;SDS011;25082;50.870;0.022;2023-04-12T00:34:51;5.07;;;2.00;;
37805;SDS011;25082;50.870;0.022;2023-04-12T00:37:17;7.43;;;2.00;;
37805;SDS011;25082;50.870;0.022;2023-04-12T00:39:43;7.38;;;2.00;;
37805;SDS011;25082;50.870;0.022;2023-04-12T00:42:08;7.65;;;2.13;;
37805;SDS011;25082;50.870;0.022;2023-04-12T00:44:37;7.45;;;1.70;;
37805;SDS011;25082;50.870;0.022;2023-04-12T00:47:03;5.43;;;1.88;;
37805;SDS011;25082;50.870;0.022;2023-04-12T00:49:30;6.97;;;2.10;;
37805;SDS011;25082;50.870;0.022;2023-04-12T00:51:59;8.70;;;2.03;;
37805;SDS011;25082;50.870;0.022;2023-04-12T00:54:32;7.78;;;2.05;;
37805;SDS011;25082;50.870;0.022;2023-04-12T00:56:59;8.25;;;2.15;;
37805;SDS011;25082;50.870;0.022;2023-04-12T00:59:25;6.60;;;2.38;;
37805;SDS011;25082;50.870;0.022;2023-04-12T01:01:52;8.23;;;2.00;;
37805;SDS011;25082;50.870;0.022;2023-04-12T01:04:21;7.57;;;2.00;;
37805;SDS011;25082;50.870;0.022;2023-04-12T01:09:36;8.88;;;2.13;;
37805;SDS011;25082;50.870;0.022;2023-04-12T01:15:18;7.45;;;2.28;;
37805;SDS011;25082;50.870;0.022;2023-04-12T01:17:58;9.35;;;2.65;;
37805;SDS011;25082;50.870;0.022;2023-04-12T01:20:56;10.48;;;2.67;;
37805;SDS011;25082;50.870;0.022;2023-04-12T01:29:26;9.60;;;2.35;;
37805;SDS011;25082;50.870;0.022;2023-04-12T01:31:57;8.90;;;2.55;;
37805;SDS011;25082;50.870;0.022;2023-04-12T01:34:29;7.88;;;2.33;;
37805;SDS011;25082;50.870;0.022;2023-04-12T01:36:57;11.10;;;2.83;;
37805;SDS011;25082;50.870;0.022;2023-04-12T01:39:26;10.02;;;2.80;;
37805;SDS011;25082;50.870;0.022;2023-04-12T01:41:53;11.40;;;2.80;;
37805;SDS011;25082;50.870;0.022;2023-04-12T01:44:19;8.55;;;2.58;;
37805;SDS011;25082;50.870;0.022;2023-04-12T01:46:45;6.32;;;2.38;;
37805;SDS011;25082;50.870;0.022;2023-04-12T01:49:13;12.07;;;2.55;;
37805;SDS011;25082;50.870;0.022;2023-04-12T01:54:25;9.77;;;2.35;;
37805;SDS011;25082;50.870;0.022;2023-04-12T01:56:55;10.18;;;2.70;;
37805;SDS011;25082;50.870;0.022;2023-04-12T01:59:22;8.77;;;2.80;;
37805;SDS011;25082;50.870;0.022;2023-04-12T02:01:52;10.93;;;2.55;;
37805;SDS011;25082;50.870;0.022;2023-04-12T02:04:18;8.02;;;2.55;;
37805;SDS011;25082;50.870;0.022;2023-04-12T02:06:45;11.55;;;2.30;;
37805;SDS011;25082;50.870;0.022;2023-04-12T02:09:12;9.45;;;3.20;;
37805;SDS011;25082;50.870;0.022;2023-04-12T02:11:37;11.90;;;2.78;;
37805;SDS011;25082;50.870;0.022;2023-04-12T02:14:03;7.22;;;2.22;;
37805;SDS011;25082;50.870;0.022;2023-04-12T02:16:29;9.90;;;3.20;;
37805;SDS011;25082;50.870;0.022;2023-04-12T02:18:56;8.25;;;2.55;;
37805;SDS011;25082;50.870;0.022;2023-04-12T02:21:22;8.50;;;2.70;;
37805;SDS011;25082;50.870;0.022;2023-04-12T02:23:48;8.48;;;2.30;;
37805;SDS011;25082;50.870;0.022;2023-04-12T02:26:14;12.43;;;2.50;;
37805;SDS011;25082;50.870;0.022;2023-04-12T02:28:41;9.38;;;2.83;;
37805;SDS011;25082;50.870;0.022;2023-04-12T02:31:08;8.15;;;2.28;;
37805;SDS011;25082;50.870;0.022;2023-04-12T02:33:34;7.78;;;2.25;;
37805;SDS011;25082;50.870;0.022;2023-04-12T02:36:00;9.20;;;2.28;;
37805;SDS011;25082;50.870;0.022;2023-04-12T02:38:28;8.90;;;2.95;;
37805;SDS011;25082;50.870;0.022;2023-04-12T02:40:55;8.98;;;2.47;;
37805;SDS011;25082;50.870;0.022;2023-04-12T02:43:21;9.05;;;2.22;;
37805;SDS011;25082;50.870;0.022;2023-04-12T02:45:47;9.13;;;2.38;;
37805;SDS011;25082;50.870;0.022;2023-04-12T02:48:13;7.78;;;2.20;;
37805;SDS011;25082;50.870;0.022;2023-04-12T02:50:39;9.27;;;2.40;;
37805;SDS011;25082;50.870;0.022;2023-04-12T02:53:05;10.05;;;2.10;;
37805;SDS011;25082;50.870;0.022;2023-04-12T02:55:31;9.32;;;2.78;;
37805;SDS011;25082;50.870;0.022;2023-04-12T02:57:57;6.45;;;2.15;;
37805;SDS011;25082;50.870;0.022;2023-04-12T03:00:23;6.80;;;2.22;;
37805;SDS011;25082;50.870;0.022;2023-04-12T03:02:48;11.30;;;2.20;;
37805;SDS011;25082;50.870;0.022;2023-04-12T03:05:17;12.27;;;3.20;;
37805;SDS011;25082;50.870;0.022;2023-04-12T03:07:43;10.73;;;3.25;;
37805;SDS011;25082;50.870;0.022;2023-04-12T03:10:10;8.23;;;2.30;;
37805;SDS011;25082;50.870;0.022;2023-04-12T03:12:36;12.25;;;2.90;;
37805;SDS011;25082;50.870;0.022;2023-04-12T03:15:02;9.13;;;2.60;;
37805;SDS011;25082;50.870;0.022;2023-04-12T03:17:28;9.75;;;2.75;;
37805;SDS011;25082;50.870;0.022;2023-04-12T03:19:54;8.75;;;2.40;;
37805;SDS011;25082;50.870;0.022;2023-04-12T03:22:22;8.13;;;2.33;;
37805;SDS011;25082;50.870;0.022;2023-04-12T03:24:49;7.95;;;2.63;;
37805;SDS011;25082;50.870;0.022;2023-04-12T03:27:15;10.93;;;2.38;;
37805;SDS011;25082;50.870;0.022;2023-04-12T03:29:41;8.88;;;2.45;;
37805;SDS011;25082;50.870;0.022;2023-04-12T03:32:07;10.40;;;2.72;;
37805;SDS011;25082;50.870;0.022;2023-04-12T03:34:33;10.13;;;2.58;;
37805;SDS011;25082;50.870;0.022;2023-04-12T03:36:59;10.20;;;2.38;;
37805;SDS011;25082;50.870;0.022;2023-04-12T03:39:26;9.07;;;2.53;;
37805;SDS011;25082;50.870;0.022;2023-04-12T03:41:52;8.55;;;2.75;;
37805;SDS011;25082;50.870;0.022;2023-04-12T03:44:19;7.03;;;2.17;;
37805;SDS011;25082;50.870;0.022;2023-04-12T03:46:45;9.52;;;2.58;;
37805;SDS011;25082;50.870;0.022;2023-04-12T03:49:12;6.10;;;2.05;;
37805;SDS011;25082;50.870;0.022;2023-04-12T03:51:38;7.40;;;2.70;;
37805;SDS011;25082;50.870;0.022;2023-04-12T03:54:08;7.65;;;2.17;;
37805;SDS011;25082;50.870;0.022;2023-04-12T03:56:34;8.65;;;3.08;;
37805;SDS011;25082;50.870;0.022;2023-04-12T03:59:00;6.72;;;2.22;;
37805;SDS011;25082;50.870;0.022;2023-04-12T04:01:26;8.00;;;3.20;;
37805;SDS011;25082;50.870;0.022;2023-04-12T04:03:52;8.63;;;2.42;;
37805;SDS011;25082;50.870;0.022;2023-04-12T04:06:17;7.82;;;2.65;;
37805;SDS011;25082;50.870;0.022;2023-04-12T04:08:43;9.32;;;2.55;;
37805;SDS011;25082;50.870;0.022;2023-04-12T04:11:10;8.93;;;2.67;;
37805;SDS011;25082;50.870;0.022;2023-04-12T04:13:36;8.35;;;2.88;;
37805;SDS011;25082;50.870;0.022;2023-04-12T04:16:03;10.13;;;2.47;;
37805;SDS011;25082;50.870;0.022;2023-04-12T04:18:30;9.30;;;2.65;;
37805;SDS011;25082;50.870;0.022;2023-04-12T04:20:56;8.18;;;2.38;;
37805;SDS011;25082;50.870;0.022;2023-04-12T04:23:22;10.30;;;2.92;;
37805;SDS011;25082;50.870;0.022;2023-04-12T04:25:49;10.02;;;2.67;;
37805;SDS011;25082;50.870;0.022;2023-04-12T04:28:17;8.52;;;2.22;;
37805;SDS011;25082;50.870;0.022;2023-04-12T04:30:43;11.60;;;2.60;;
37805;SDS011;25082;50.870;0.022;2023-04-12T04:33:10;7.15;;;2.05;;
37805;SDS011;25082;50.870;0.022;2023-04-12T04:35:39;6.50;;;2.35;;
37805;SDS011;25082;50.870;0.022;2023-04-12T04:38:05;7.50;;;2.38;;
37805;SDS011;25082;50.870;0.022;2023-04-12T04:40:31;10.13;;;2.28;;
37805;SDS011;25082;50.870;0.022;2023-04-12T04:42:57;8.38;;;2.15;;
37805;SDS011;25082;50.870;0.022;2023-04-12T04:45:23;10.40;;;2.65;;
37805;SDS011;25082;50.870;0.022;2023-04-12T04:47:53;10.40;;;3.20;;
37805;SDS011;25082;50.870;0.022;2023-04-12T04:50:19;7.35;;;2.45;;
37805;SDS011;25082;50.870;0.022;2023-04-12T04:52:46;13.10;;;2.88;;
37805;SDS011;25082;50.870;0.022;2023-04-12T04:55:18;7.88;;;2.45;;
37805;SDS011;25082;50.870;0.022;2023-04-12T04:57:45;9.18;;;2.78;;
37805;SDS011;25082;50.870;0.022;2023-04-12T05:00:11;8.52;;;2.47;;
37805;SDS011;25082;50.870;0.022;2023-04-12T05:02:38;5.18;;;2.15;;
37805;SDS011;25082;50.870;0.022;2023-04-12T05:05:07;8.27;;;2.47;;
37805;SDS011;25082;50.870;0.022;2023-04-12T05:07:37;10.15;;;2.85;;
37805;SDS011;25082;50.870;0.022;2023-04-12T05:10:03;7.85;;;2.13;;
37805;SDS011;25082;50.870;0.022;2023-04-12T05:12:29;9.88;;;2.63;;
37805;SDS011;25082;50.870;0.022;2023-04-12T05:14:56;7.78;;;2.58;;
37805;SDS011;25082;50.870;0.022;2023-04-12T05:17:22;6.40;;;2.00;;
37805;SDS011;25082;50.870;0.022;2023-04-12T05:19:48;8.82;;;2.00;;
37805;SDS011;25082;50.870;0.022;2023-04-12T05:22:13;6.15;;;1.70;;
37805;SDS011;25082;50.870;0.022;2023-04-12T05:24:44;6.93;;;2.08;;
37805;SDS011;25082;50.870;0.022;2023-04-12T05:27:10;9.57;;;2.42;;
37805;SDS011;25082;50.870;0.022;2023-04-12T05:29:36;7.20;;;2.28;;
37805;SDS011;25082;50.870;0.022;2023-04-12T05:32:01;8.02;;;2.72;;
37805;SDS011;25082;50.870;0.022;2023-04-12T05:34:28;8.40;;;2.45;;
37805;SDS011;25082;50.870;0.022;2023-04-12T05:36:54;7.35;;;2.28;;
37805;SDS011;25082;50.870;0.022;2023-04-12T05:39:20;11.40;;;2.85;;
37805;SDS011;25082;50.870;0.022;2023-04-12T05:41:49;9.52;;;2.03;;
37805;SDS011;25082;50.870;0.022;2023-04-12T05:44:15;6.28;;;1.73;;
37805;SDS011;25082;50.870;0.022;2023-04-12T05:46:41;5.68;;;2.20;;
37805;SDS011;25082;50.870;0.022;2023-04-12T05:49:06;6.82;;;2.60;;
37805;SDS011;25082;50.870;0.022;2023-04-12T05:51:32;5.90;;;1.95;;
37805;SDS011;25082;50.870;0.022;2023-04-12T05:53:58;10.98;;;2.70;;
37805;SDS011;25082;50.870;0.022;2023-04-12T05:56:25;4.55;;;1.73;;
37805;SDS011;25082;50.870;0.022;2023-04-12T05:58:50;6.97;;;2.20;;
37805;SDS011;25082;50.870;0.022;2023-04-12T06:01:16;7.45;;;2.33;;
37805;SDS011;25082;50.870;0.022;2023-04-12T06:03:44;6.57;;;1.90;;
37805;SDS011;25082;50.870;0.022;2023-04-12T06:06:10;6.50;;;1.70;;
37805;SDS011;25082;50.870;0.022;2023-04-12T06:08:36;7.57;;;2.28;;
37805;SDS011;25082;50.870;0.022;2023-04-12T06:11:03;5.43;;;1.90;;
37805;SDS011;25082;50.870;0.022;2023-04-12T06:13:29;7.78;;;2.22;;
37805;SDS011;25082;50.870;0.022;2023-04-12T06:15:55;7.70;;;2.20;;
37805;SDS011;25082;50.870;0.022;2023-04-12T06:18:21;5.38;;;1.92;;
37805;SDS011;25082;50.870;0.022;2023-04-12T06:20:46;4.60;;;1.48;;
37805;SDS011;25082;50.870;0.022;2023-04-12T06:23:12;8.65;;;2.00;;
37805;SDS011;25082;50.870;0.022;2023-04-12T06:25:38;7.43;;;1.83;;
37805;SDS011;25082;50.870;0.022;2023-04-12T06:28:03;6.68;;;1.90;;
37805;SDS011;25082;50.870;0.022;2023-04-12T06:30:29;4.35;;;1.40;;
37805;SDS011;25082;50.870;0.022;2023-04-12T06:32:55;6.03;;;1.92;;
37805;SDS011;25082;50.870;0.022;2023-04-12T06:35:20;5.68;;;1.75;;
37805;SDS011;25082;50.870;0.022;2023-04-12T06:37:46;4.70;;;1.50;;
37805;SDS011;25082;50.870;0.022;2023-04-12T06:40:12;5.43;;;1.92;;
37805;SDS011;25082;50.870;0.022;2023-04-12T06:42:38;4.75;;;1.70;;
37805;SDS011;25082;50.870;0.022;2023-04-12T06:45:04;5.95;;;1.52;;
37805;SDS011;25082;50.870;0.022;2023-04-12T06:47:31;4.03;;;1.60;;
37805;SDS011;25082;50.870;0.022;2023-04-12T06:49:56;6.45;;;2.22;;
37805;SDS011;25082;50.870;0.022;2023-04-12T06:52:25;5.25;;;1.48;;
37805;SDS011;25082;50.870;0.022;2023-04-12T06:54:51;6.57;;;1.48;;
37805;SDS011;25082;50.870;0.022;2023-04-12T06:57:18;4.85;;;1.25;;
37805;SDS011;25082;50.870;0.022;2023-04-12T06:59:44;5.18;;;1.63;;
37805;SDS011;25082;50.870;0.022;2023-04-12T07:02:10;7.72;;;1.83;;
37805;SDS011;25082;50.870;0.022;2023-04-12T07:04:35;6.35;;;2.13;;
37805;SDS011;25082;50.870;0.022;2023-04-12T07:07:01;3.92;;;1.40;;
37805;SDS011;25082;50.870;0.022;2023-04-12T07:09:29;5.20;;;1.67;;
37805;SDS011;25082;50.870;0.022;2023-04-12T07:11:56;5.95;;;2.10;;
37805;SDS011;25082;50.870;0.022;2023-04-12T07:14:22;4.90;;;1.65;;
37805;SDS011;25082;50.870;0.022;2023-04-12T07:16:48;3.47;;;1.27;;
37805;SDS011;25082;50.870;0.022;2023-04-12T07:19:14;4.95;;;1.30;;
37805;SDS011;25082;50.870;0.022;2023-04-12T07:21:40;5.45;;;1.65;;
37805;SDS011;25082;50.870;0.022;2023-04-12T07:24:06;4.60;;;1.35;;
37805;SDS011;25082;50.870;0.022;2023-04-12T07:26:32;3.80;;;1.33;;
37805;SDS011;25082;50.870;0.022;2023-04-12T07:28:58;3.97;;;1.30;;
37805;SDS011;25082;50.870;0.022;2023-04-12T07:31:23;6.45;;;2.03;;
37805;SDS011;25082;50.870;0.022;2023-04-12T07:33:49;7.00;;;1.42;;
37805;SDS011;25082;50.870;0.022;2023-04-12T07:36:15;4.22;;;1.45;;
37805;SDS011;25082;50.870;0.022;2023-04-12T07:38:45;3.25;;;1.13;;
37805;SDS011;25082;50.870;0.022;2023-04-12T07:41:10;16.05;;;2.92;;
37805;SDS011;25082;50.870;0.022;2023-04-12T07:43:36;11.57;;;2.45;;
37805;SDS011;25082;50.870;0.022;2023-04-12T07:46:02;12.48;;;2.38;;
37805;SDS011;25082;50.870;0.022;2023-04-12T07:48:32;9.70;;;1.75;;
37805;SDS011;25082;50.870;0.022;2023-04-12T07:50:58;4.57;;;1.65;;
37805;SDS011;25082;50.870;0.022;2023-04-12T07:53:25;7.10;;;1.77;;
37805;SDS011;25082;50.870;0.022;2023-04-12T07:55:52;7.47;;;1.60;;
37805;SDS011;25082;50.870;0.022;2023-04-12T07:58:22;7.72;;;1.70;;
37805;SDS011;25082;50.870;0.022;2023-04-12T08:00:48;5.60;;;1.20;;
37805;SDS011;25082;50.870;0.022;2023-04-12T08:03:15;8.98;;;1.70;;
37805;SDS011;25082;50.870;0.022;2023-04-12T08:05:42;7.20;;;1.77;;
37805;SDS011;25082;50.870;0.022;2023-04-12T08:08:09;6.75;;;1.73;;
37805;SDS011;25082;50.870;0.022;2023-04-12T08:10:36;5.88;;;1.33;;
37805;SDS011;25082;50.870;0.022;2023-04-12T08:13:03;8.82;;;1.75;;
37805;SDS011;25082;50.870;0.022;2023-04-12T08:15:29;5.65;;;1.67;;
37805;SDS011;25082;50.870;0.022;2023-04-12T08:17:55;6.75;;;1.48;;
37805;SDS011;25082;50.870;0.022;2023-04-12T08:20:21;6.57;;;1.77;;
37805;SDS011;25082;50.870;0.022;2023-04-12T08:22:47;8.75;;;1.20;;
37805;SDS011;25082;50.870;0.022;2023-04-12T08:25:13;6.15;;;1.45;;
37805;SDS011;25082;50.870;0.022;2023-04-12T08:27:42;5.80;;;1.65;;
37805;SDS011;25082;50.870;0.022;2023-04-12T08:30:09;5.97;;;1.17;;
37805;SDS011;25082;50.870;0.022;2023-04-12T08:32:35;6.40;;;1.20;;
37805;SDS011;25082;50.870;0.022;2023-04-12T08:35:02;11.13;;;1.33;;
37805;SDS011;25082;50.870;0.022;2023-04-12T08:37:31;3.53;;;1.20;;
37805;SDS011;25082;50.870;0.022;2023-04-12T08:40:04;3.22;;;1.00;;
37805;SDS011;25082;50.870;0.022;2023-04-12T08:42:33;5.38;;;1.55;;
37805;SDS011;25082;50.870;0.022;2023-04-12T08:45:07;3.53;;;0.90;;
37805;SDS011;25082;50.870;0.022;2023-04-12T08:47:35;6.20;;;1.10;;
37805;SDS011;25082;50.870;0.022;2023-04-12T08:50:03;3.15;;;0.80;;
37805;SDS011;25082;50.870;0.022;2023-04-12T08:52:33;6.18;;;1.45;;
37805;SDS011;25082;50.870;0.022;2023-04-12T08:55:03;5.07;;;1.23;;
37805;SDS011;25082;50.870;0.022;2023-04-12T08:57:30;2.20;;;0.65;;
37805;SDS011;25082;50.870;0.022;2023-04-12T08:59:59;2.45;;;0.60;;
37805;SDS011;25082;50.870;0.022;2023-04-12T09:02:26;4.22;;;1.30;;
37805;SDS011;25082;50.870;0.022;2023-04-12T09:04:52;3.38;;;0.90;;
37805;SDS011;25082;50.870;0.022;2023-04-12T09:07:18;4.30;;;1.30;;
37805;SDS011;25082;50.870;0.022;2023-04-12T09:09:47;4.35;;;0.90;;
37805;SDS011;25082;50.870;0.022;2023-04-12T09:12:13;4.18;;;0.93;;
37805;SDS011;25082;50.870;0.022;2023-04-12T09:14:40;2.70;;;0.85;;
37805;SDS011;25082;50.870;0.022;2023-04-12T09:17:22;1.83;;;0.80;;
37805;SDS011;25082;50.870;0.022;2023-04-12T09:19:49;3.78;;;1.05;;
37805;SDS011;25082;50.870;0.022;2023-04-12T09:22:15;5.78;;;0.93;;
37805;SDS011;25082;50.870;0.022;2023-04-12T09:24:45;2.13;;;0.75;;
37805;SDS011;25082;50.870;0.022;2023-04-12T09:27:12;4.03;;;0.77;;
37805;SDS011;25082;50.870;0.022;2023-04-12T09:29:38;3.05;;;1.20;;
37805;SDS011;25082;50.870;0.022;2023-04-12T09:32:04;4.25;;;0.90;;
37805;SDS011;25082;50.870;0.022;2023-04-12T09:34:32;3.72;;;1.02;;
37805;SDS011;25082;50.870;0.022;2023-04-12T09:37:11;2.88;;;0.88;;
37805;SDS011;25082;50.870;0.022;2023-04-12T09:39:37;4.22;;;1.02;;
37805;SDS011;25082;50.870;0.022;2023-04-12T09:42:04;3.17;;;0.95;;
37805;SDS011;25082;50.870;0.022;2023-04-12T09:44:34;3.25;;;0.73;;
37805;SDS011;25082;50.870;0.022;2023-04-12T09:47:01;3.28;;;1.00;;
37805;SDS011;25082;50.870;0.022;2023-04-12T09:49:38;3.35;;;0.75;;
37805;SDS011;25082;50.870;0.022;2023-04-12T09:52:09;4.13;;;1.10;;
37805;SDS011;25082;50.870;0.022;2023-04-12T09:54:46;1.85;;;1.08;;
37805;SDS011;25082;50.870;0.022;2023-04-12T09:57:16;3.53;;;1.13;;
37805;SDS011;25082;50.870;0.022;2023-04-12T09:59:45;2.50;;;0.80;;
37805;SDS011;25082;50.870;0.022;2023-04-12T10:02:16;2.25;;;1.02;;
37805;SDS011;25082;50.870;0.022;2023-04-12T10:04:43;3.15;;;0.85;;
37805;SDS011;25082;50.870;0.022;2023-04-12T10:07:13;2.33;;;0.82;;
37805;SDS011;25082;50.870;0.022;2023-04-12T10:09:40;3.95;;;0.80;;
37805;SDS011;25082;50.870;0.022;2023-04-12T10:12:06;3.45;;;0.80;;
37805;SDS011;25082;50.870;0.022;2023-04-12T10:14:33;3.17;;;0.85;;
37805;SDS011;25082;50.870;0.022;2023-04-12T10:17:00;5.22;;;1.25;;
37805;SDS011;25082;50.870;0.022;2023-04-12T10:19:28;3.13;;;0.90;;
37805;SDS011;25082;50.870;0.022;2023-04-12T10:21:55;3.63;;;1.13;;
37805;SDS011;25082;50.870;0.022;2023-04-12T10:24:21;3.13;;;0.90;;
37805;SDS011;25082;50.870;0.022;2023-04-12T10:26:54;4.05;;;1.08;;
37805;SDS011;25082;50.870;0.022;2023-04-12T10:32:16;3.50;;;0.98;;
37805;SDS011;25082;50.870;0.022;2023-04-12T10:34:48;3.75;;;1.08;;
37805;SDS011;25082;50.870;0.022;2023-04-12T10:37:16;4.70;;;1.33;;
37805;SDS011;25082;50.870;0.022;2023-04-12T10:39:46;3.30;;;0.90;;
37805;SDS011;25082;50.870;0.022;2023-04-12T10:50:19;5.32;;;1.45;;
37805;SDS011;25082;50.870;0.022;2023-04-12T10:55:37;3.75;;;1.15;;
37805;SDS011;25082;50.870;0.022;2023-04-12T10:58:09;5.40;;;1.02;;
37805;SDS011;25082;50.870;0.022;2023-04-12T11:01:36;4.38;;;1.17;;
37805;SDS011;25082;50.870;0.022;2023-04-12T11:03:30;4.53;;;1.27;;
37805;SDS011;25082;50.870;0.022;2023-04-12T11:06:03;3.20;;;0.98;;
37805;SDS011;25082;50.870;0.022;2023-04-12T11:08:30;4.57;;;1.10;;
37805;SDS011;25082;50.870;0.022;2023-04-12T11:11:03;3.88;;;1.30;;
37805;SDS011;25082;50.870;0.022;2023-04-12T11:13:41;3.67;;;1.38;;
37805;SDS011;25082;50.870;0.022;2023-04-12T11:16:07;4.07;;;1.13;;
37805;SDS011;25082;50.870;0.022;2023-04-12T11:18:36;5.57;;;1.17;;
37805;SDS011;25082;50.870;0.022;2023-04-12T11:21:03;4.75;;;1.48;;
37805;SDS011;25082;50.870;0.022;2023-04-12T11:23:30;5.65;;;1.42;;
37805;SDS011;25082;50.870;0.022;2023-04-12T11:25:56;8.00;;;1.75;;
37805;SDS011;25082;50.870;0.022;2023-04-12T11:28:23;4.93;;;1.35;;
37805;SDS011;25082;50.870;0.022;2023-04-12T11:30:56;4.85;;;1.75;;
37805;SDS011;25082;50.870;0.022;2023-04-12T11:35:58;4.90;;;1.02;;
37805;SDS011;25082;50.870;0.022;2023-04-12T11:38:26;4.53;;;1.02;;
37805;SDS011;25082;50.870;0.022;2023-04-12T11:40:52;8.55;;;1.90;;
37805;SDS011;25082;50.870;0.022;2023-04-12T11:43:19;6.75;;;1.50;;
37805;SDS011;25082;50.870;0.022;2023-04-12T11:45:45;7.03;;;1.70;;
37805;SDS011;25082;50.870;0.022;2023-04-12T11:48:11;7.63;;;1.48;;
37805;SDS011;25082;50.870;0.022;2023-04-12T11:50:37;8.18;;;1.98;;
37805;SDS011;25082;50.870;0.022;2023-04-12T11:53:13;8.60;;;2.20;;
37805;SDS011;25082;50.870;0.022;2023-04-12T11:55:46;6.30;;;1.48;;
37805;SDS011;25082;50.870;0.022;2023-04-12T11:58:13;5.45;;;1.33;;
37805;SDS011;25082;50.870;0.022;2023-04-12T12:00:40;4.72;;;1.10;;
37805;SDS011;25082;50.870;0.022;2023-04-12T12:03:07;7.55;;;1.40;;
37805;SDS011;25082;50.870;0.022;2023-04-12T12:05:34;4.75;;;1.35;;
37805;SDS011;25082;50.870;0.022;2023-04-12T12:08:02;7.72;;;1.60;;
37805;SDS011;25082;50.870;0.022;2023-04-12T12:10:32;6.50;;;1.83;;
37805;SDS011;25082;50.870;0.022;2023-04-12T12:12:58;6.68;;;1.48;;
37805;SDS011;25082;50.870;0.022;2023-04-12T12:15:28;3.35;;;1.40;;
37805;SDS011;25082;50.870;0.022;2023-04-12T12:17:55;7.28;;;1.52;;
37805;SDS011;25082;50.870;0.022;2023-04-12T12:20:21;8.68;;;1.90;;
37805;SDS011;25082;50.870;0.022;2023-04-12T12:22:48;5.05;;;1.55;;
37805;SDS011;25082;50.870;0.022;2023-04-12T12:25:16;31.73;;;4.57;;
37805;SDS011;25082;50.870;0.022;2023-04-12T12:27:43;19.25;;;3.30;;
37805;SDS011;25082;50.870;0.022;2023-04-12T12:30:12;17.70;;;3.65;;
37805;SDS011;25082;50.870;0.022;2023-04-12T12:32:42;13.35;;;3.20;;
37805;SDS011;25082;50.870;0.022;2023-04-12T12:35:09;12.48;;;2.65;;
37805;SDS011;25082;50.870;0.022;2023-04-12T12:37:36;21.38;;;3.70;;
37805;SDS011;25082;50.870;0.022;2023-04-12T12:40:12;16.25;;;3.28;;
37805;SDS011;25082;50.870;0.022;2023-04-12T12:42:44;16.20;;;3.42;;
37805;SDS011;25082;50.870;0.022;2023-04-12T12:45:19;12.30;;;3.10;;
37805;SDS011;25082;50.870;0.022;2023-04-12T12:47:53;15.18;;;3.55;;
37805;SDS011;25082;50.870;0.022;2023-04-12T12:50:24;21.40;;;4.95;;
37805;SDS011;25082;50.870;0.022;2023-04-12T12:52:51;15.20;;;3.75;;
37805;SDS011;25082;50.870;0.022;2023-04-12T12:55:18;17.42;;;3.72;;
37805;SDS011;25082;50.870;0.022;2023-04-12T12:57:46;15.18;;;3.42;;
37805;SDS011;25082;50.870;0.022;2023-04-12T13:00:13;19.95;;;3.90;;
37805;SDS011;25082;50.870;0.022;2023-04-12T13:02:40;11.70;;;3.58;;
37805;SDS011;25082;50.870;0.022;2023-04-12T13:05:07;15.07;;;3.85;;
37805;SDS011;25082;50.870;0.022;2023-04-12T13:07:33;12.93;;;3.35;;
37805;SDS011;25082;50.870;0.022;2023-04-12T13:09:59;17.90;;;4.55;;
37805;SDS011;25082;50.870;0.022;2023-04-12T13:12:25;17.55;;;4.15;;
37805;SDS011;25082;50.870;0.022;2023-04-12T13:14:51;23.23;;;4.53;;
37805;SDS011;25082;50.870;0.022;2023-04-12T13:17:17;15.38;;;4.78;;
37805;SDS011;25082;50.870;0.022;2023-04-12T13:19:46;21.08;;;4.47;;
37805;SDS011;25082;50.870;0.022;2023-04-12T13:22:13;16.17;;;4.47;;
37805;SDS011;25082;50.870;0.022;2023-04-12T13:24:39;28.70;;;4.97;;
37805;SDS011;25082;50.870;0.022;2023-04-12T13:27:05;21.25;;;5.38;;
37805;SDS011;25082;50.870;0.022;2023-04-12T13:29:33;20.60;;;4.55;;
37805;SDS011;25082;50.870;0.022;2023-04-12T13:31:59;12.63;;;3.67;;
37805;SDS011;25082;50.870;0.022;2023-04-12T13:34:25;22.70;;;4.18;;
37805;SDS011;25082;50.870;0.022;2023-04-12T13:36:51;19.40;;;3.70;;
37805;SDS011;25082;50.870;0.022;2023-04-12T13:39:17;17.38;;;4.68;;
37805;SDS011;25082;50.870;0.022;2023-04-12T13:41:43;12.63;;;3.60;;
37805;SDS011;25082;50.870;0.022;2023-04-12T13:44:08;18.63;;;4.38;;
37805;SDS011;25082;50.870;0.022;2023-04-12T13:46:34;17.80;;;4.07;;
37805;SDS011;25082;50.870;0.022;2023-04-12T13:49:00;19.00;;;4.13;;
37805;SDS011;25082;50.870;0.022;2023-04-12T13:51:26;17.83;;;4.28;;
37805;SDS011;25082;50.870;0.022;2023-04-12T13:53:52;18.15;;;4.13;;
37805;SDS011;25082;50.870;0.022;2023-04-12T13:56:21;13.90;;;3.72;;
37805;SDS011;25082;50.870;0.022;2023-04-12T13:58:47;16.85;;;4.03;;
37805;SDS011;25082;50.870;0.022;2023-04-12T14:01:12;21.70;;;4.55;;
37805;SDS011;25082;50.870;0.022;2023-04-12T14:03:38;19.45;;;5.10;;
37805;SDS011;25082;50.870;0.022;2023-04-12T14:06:08;24.45;;;4.80;;
37805;SDS011;25082;50.870;0.022;2023-04-12T14:08:34;23.08;;;4.05;;
37805;SDS011;25082;50.870;0.022;2023-04-12T14:11:01;15.43;;;3.88;;
37805;SDS011;25082;50.870;0.022;2023-04-12T14:13:27;17.67;;;3.70;;
37805;SDS011;25082;50.870;0.022;2023-04-12T14:15:53;13.57;;;3.17;;
37805;SDS011;25082;50.870;0.022;2023-04-12T14:18:20;17.05;;;3.40;;
37805;SDS011;25082;50.870;0.022;2023-04-12T14:20:49;18.67;;;4.75;;
37805;SDS011;25082;50.870;0.022;2023-04-12T14:23:21;17.25;;;3.92;;
37805;SDS011;25082;50.870;0.022;2023-04-12T14:25:49;20.20;;;4.03;;
37805;SDS011;25082;50.870;0.022;2023-04-12T14:28:15;20.73;;;4.00;;
37805;SDS011;25082;50.870;0.022;2023-04-12T14:30:42;12.40;;;3.15;;
37805;SDS011;25082;50.870;0.022;2023-04-12T14:33:08;13.73;;;3.20;;
37805;SDS011;25082;50.870;0.022;2023-04-12T14:35:33;11.43;;;3.72;;
37805;SDS011;25082;50.870;0.022;2023-04-12T14:37:59;14.40;;;3.50;;
37805;SDS011;25082;50.870;0.022;2023-04-12T14:40:26;13.13;;;3.30;;
37805;SDS011;25082;50.870;0.022;2023-04-12T14:42:52;11.55;;;2.83;;
37805;SDS011;25082;50.870;0.022;2023-04-12T14:45:18;13.93;;;2.97;;
37805;SDS011;25082;50.870;0.022;2023-04-12T14:47:45;12.98;;;3.03;;
37805;SDS011;25082;50.870;0.022;2023-04-12T14:50:11;9.30;;;2.65;;
37805;SDS011;25082;50.870;0.022;2023-04-12T14:52:36;12.35;;;3.47;;
37805;SDS011;25082;50.870;0.022;2023-04-12T14:55:02;11.13;;;3.40;;
37805;SDS011;25082;50.870;0.022;2023-04-12T14:57:28;11.15;;;2.50;;
37805;SDS011;25082;50.870;0.022;2023-04-12T14:59:54;9.90;;;2.97;;
37805;SDS011;25082;50.870;0.022;2023-04-12T15:02:20;11.75;;;3.08;;
37805;SDS011;25082;50.870;0.022;2023-04-12T15:04:49;9.55;;;2.92;;
37805;SDS011;25082;50.870;0.022;2023-04-12T15:07:15;10.68;;;2.67;;
37805;SDS011;25082;50.870;0.022;2023-04-12T15:09:41;11.25;;;3.85;;
37805;SDS011;25082;50.870;0.022;2023-04-12T15:12:10;21.08;;;2.78;;
37805;SDS011;25082;50.870;0.022;2023-04-12T15:14:35;11.77;;;2.63;;